Portada
METAR-TAF:

METAR-TAF

Aeroports :

Bucarest, Romania

latitud: 44-33N, longitud: 026-06E, altitud: 95 m

Observació

L'informe es va fer fa 21 minuts, a les 05:00 UTC
Vent 2 kt amb direcció variable
Temperatura 14°C
Humitat 77%
Pressió 1013 hPa
Visibilitat 10 km o més
sense núvols per sota de 1500 mi sense presència de cumulonimbus.

METAR: LROP 170500Z VRB02KT CAVOK 14/10 Q1013 NOSIG

Hora: 08:21 (05:21 UTC)

Pronòstic

L'informe es va fer fa 6 hores i 21 minuts, a les 23:00 UTC
Pronòstic vàlid del 17 a les 00 UTC al 17 a les 24 UTC
Vent 5 kt del Oest
Visibilitat 10 km o més
sense núvols per sota de 1500 mi sense presència de cumulonimbus.
Evolucionant progressivament
l' 17 a les 16 UTC al 17 a les 18 UTC
Vent 15 kt del Oest

TAF: LROP 162300Z 1700/1724 28005KT CAVOK BECMG 1716/1718 27015KT

Observacions i pronòstics meteorològics de més de 4000 aeroports (METAR i TAF).

Les estacions disponibles són els punts grocs i vermells al mapa.

Posi el ratolí al punt desitjat per veure el nom de l'estació.

Feu clic per veure les observacions i els pronòstics meteorològics.

Per canviar el mapa: feu clic els botons verds amb una creu de color negre per apropar; al botó verd amb un guió per allunyar la imatge; o en les fletxes verdes per a mapes adjacents.


METAR-TAF: